createdAt,value
2018-06-09T00:02:53.090Z,19.66
2018-06-09T00:05:57.468Z,19.62
2018-06-09T00:09:01.883Z,19.57
2018-06-09T00:12:06.258Z,19.53
2018-06-09T00:15:10.621Z,19.49
2018-06-09T00:18:15.009Z,19.48
2018-06-09T00:21:19.357Z,19.46
2018-06-09T00:24:23.725Z,19.42
2018-06-09T00:27:28.101Z,19.36
2018-06-09T00:30:32.193Z,19.32
2018-06-09T00:33:36.600Z,19.25
2018-06-09T00:36:41.795Z,19.22
2018-06-09T00:39:46.176Z,19.19
2018-06-09T00:42:50.530Z,19.18
2018-06-09T00:45:54.904Z,19.20
2018-06-09T00:48:59.266Z,19.17
2018-06-09T00:52:03.637Z,19.11
2018-06-09T00:55:07.682Z,19.07
2018-06-09T00:58:12.066Z,19.02
2018-06-09T01:01:16.412Z,18.97
2018-06-09T01:04:20.774Z,18.96
2018-06-09T01:07:25.145Z,18.90
2018-06-09T01:10:29.512Z,18.86
2018-06-09T01:13:33.877Z,18.84
2018-06-09T01:16:38.249Z,18.81
2018-06-09T01:19:42.657Z,18.78
2018-06-09T01:22:47.010Z,18.73
2018-06-09T01:25:51.397Z,18.67
2018-06-09T01:28:55.772Z,18.62
2018-06-09T01:32:00.162Z,18.60
2018-06-09T01:35:04.538Z,18.57
2018-06-09T01:38:08.941Z,18.54
2018-06-09T01:41:13.288Z,18.51
2018-06-09T01:44:17.646Z,18.48
2018-06-09T01:47:22.044Z,18.44
2018-06-09T01:50:26.413Z,18.41
2018-06-09T01:53:30.792Z,18.41
2018-06-09T01:56:35.156Z,18.42
2018-06-09T01:59:39.549Z,18.41
2018-06-09T02:02:43.925Z,18.41
2018-06-09T02:05:48.281Z,18.37
2018-06-09T02:08:52.644Z,18.35
2018-06-09T02:11:57.009Z,18.31
2018-06-09T02:15:01.382Z,18.27
2018-06-09T02:18:05.769Z,18.21
2018-06-09T02:21:10.145Z,18.21
2018-06-09T02:24:14.488Z,18.21
2018-06-09T02:27:18.877Z,18.19
2018-06-09T02:30:23.233Z,18.14
2018-06-09T02:33:27.612Z,18.11
2018-06-09T02:36:31.964Z,18.07
2018-06-09T02:39:36.353Z,18.02
2018-06-09T02:42:40.711Z,17.99
2018-06-09T02:45:45.065Z,17.95
2018-06-09T02:48:49.446Z,17.93
2018-06-09T02:51:53.827Z,17.91
2018-06-09T02:54:58.206Z,17.91
2018-06-09T02:58:02.590Z,17.90
2018-06-09T03:01:06.978Z,17.90
2018-06-09T03:04:11.353Z,17.92
2018-06-09T03:07:15.746Z,17.94
2018-06-09T03:10:20.100Z,17.96
2018-06-09T03:13:24.486Z,17.97
2018-06-09T03:16:28.861Z,17.97
2018-06-09T03:19:33.232Z,18.02
2018-06-09T03:22:37.605Z,18.05
2018-06-09T03:25:41.977Z,18.07
2018-06-09T03:28:46.329Z,18.08
2018-06-09T03:31:50.709Z,18.11
2018-06-09T03:34:55.061Z,18.15
2018-06-09T03:37:59.471Z,18.23
2018-06-09T03:41:03.836Z,18.27
2018-06-09T03:44:08.225Z,18.34
2018-06-09T03:47:12.582Z,18.37
2018-06-09T03:50:16.952Z,18.41
2018-06-09T03:53:21.321Z,18.47
2018-06-09T03:56:25.685Z,18.52
2018-06-09T03:59:30.085Z,18.56
2018-06-09T04:02:34.449Z,18.62
2018-06-09T04:05:38.814Z,18.71
2018-06-09T04:08:43.201Z,18.80
2018-06-09T04:11:47.561Z,18.87
2018-06-09T04:14:51.920Z,18.94
2018-06-09T04:17:56.283Z,18.99
2018-06-09T04:21:00.664Z,19.04
2018-06-09T04:24:05.068Z,19.06
2018-06-09T04:27:09.412Z,19.09
2018-06-09T04:30:13.817Z,19.13
2018-06-09T04:33:18.189Z,19.19
2018-06-09T04:36:22.569Z,19.24
2018-06-09T04:39:26.937Z,19.29
2018-06-09T04:42:31.325Z,19.35
2018-06-09T04:45:35.677Z,19.42
2018-06-09T04:48:40.069Z,19.51
2018-06-09T04:51:44.441Z,19.58
2018-06-09T04:54:48.822Z,19.68
2018-06-09T04:57:53.164Z,19.79
2018-06-09T05:00:57.562Z,19.86
2018-06-09T05:04:01.946Z,19.94
2018-06-09T05:07:06.308Z,20.02
2018-06-09T05:10:10.700Z,20.09
2018-06-09T05:13:15.074Z,20.13
2018-06-09T05:16:19.494Z,20.16
2018-06-09T05:19:23.865Z,20.20
2018-06-09T05:22:28.229Z,20.22
2018-06-09T05:25:32.605Z,20.29
2018-06-09T05:28:36.988Z,20.36
2018-06-09T05:31:41.381Z,20.44
2018-06-09T05:34:45.778Z,20.49
2018-06-09T05:37:50.160Z,20.56
2018-06-09T05:40:55.754Z,20.64
2018-06-09T05:44:00.137Z,20.69
2018-06-09T05:47:04.547Z,20.81
2018-06-09T05:50:08.914Z,20.96
2018-06-09T05:53:13.312Z,21.08
2018-06-09T05:56:17.671Z,21.20
2018-06-09T05:59:22.045Z,21.40
2018-06-09T06:02:26.404Z,21.51
2018-06-09T06:05:30.780Z,21.64
2018-06-09T06:08:35.255Z,21.69
2018-06-09T06:11:39.662Z,21.74
2018-06-09T06:14:44.049Z,21.80
2018-06-09T06:17:48.160Z,21.87
2018-06-09T06:20:52.533Z,22.01
2018-06-09T06:23:56.929Z,22.23
2018-06-09T06:27:01.308Z,22.43
2018-06-09T06:30:05.720Z,22.54
2018-06-09T06:33:10.136Z,22.59
2018-06-09T06:36:14.514Z,22.55
2018-06-09T06:39:18.893Z,22.56
2018-06-09T06:42:23.248Z,22.54
2018-06-09T06:45:27.597Z,22.51
2018-06-09T06:48:31.985Z,22.50
2018-06-09T06:51:36.365Z,22.39
2018-06-09T06:54:40.738Z,22.31
2018-06-09T06:57:45.102Z,22.27
2018-06-09T07:00:49.470Z,22.23
2018-06-09T07:03:53.869Z,22.11
2018-06-09T07:06:58.233Z,22.04
2018-06-09T07:10:02.600Z,21.98
2018-06-09T07:13:06.968Z,21.90
2018-06-09T07:16:11.353Z,21.80
2018-06-09T07:19:15.736Z,21.70
2018-06-09T07:22:20.130Z,21.59
2018-06-09T07:25:24.502Z,21.54
2018-06-09T07:28:28.881Z,21.46
2018-06-09T07:31:33.276Z,21.35
2018-06-09T07:34:37.712Z,21.24
2018-06-09T07:37:42.086Z,21.14
2018-06-09T07:40:46.453Z,21.04
2018-06-09T07:43:50.814Z,20.93
2018-06-09T07:46:55.172Z,20.83
2018-06-09T07:49:59.522Z,20.73
2018-06-09T07:53:03.947Z,20.67
2018-06-09T07:56:08.324Z,20.63
2018-06-09T07:59:12.725Z,20.56
2018-06-09T08:02:17.081Z,20.52
2018-06-09T08:05:21.453Z,20.46
2018-06-09T08:08:25.817Z,20.39
2018-06-09T08:11:30.198Z,20.31
2018-06-09T08:14:34.568Z,20.26
2018-06-09T08:17:38.946Z,20.25
2018-06-09T08:20:43.312Z,20.22
2018-06-09T08:23:47.687Z,20.23
2018-06-09T08:26:52.083Z,20.23
2018-06-09T08:29:56.473Z,20.24
2018-06-09T08:33:00.886Z,20.26
2018-06-09T08:36:05.416Z,20.24
2018-06-09T08:39:11.237Z,20.24
2018-06-09T08:42:18.299Z,20.28
2018-06-09T08:45:22.754Z,20.31
2018-06-09T08:48:27.155Z,20.35
2018-06-09T08:51:31.594Z,20.40
2018-06-09T08:54:36.021Z,20.44
2018-06-09T08:57:40.417Z,20.55
2018-06-09T09:00:44.841Z,20.54
2018-06-09T09:03:49.252Z,20.56
2018-06-09T09:06:53.636Z,20.62
2018-06-09T09:09:58.045Z,20.68
2018-06-09T09:13:02.490Z,20.73
2018-06-09T09:16:06.905Z,20.71
2018-06-09T09:19:11.320Z,20.72
2018-06-09T09:22:15.701Z,20.73
2018-06-09T09:25:20.100Z,20.75
2018-06-09T09:28:24.500Z,20.87
2018-06-09T09:31:28.904Z,20.86
2018-06-09T09:34:33.328Z,20.85
2018-06-09T09:37:37.778Z,20.94
2018-06-09T09:40:42.185Z,20.96
2018-06-09T09:43:46.617Z,20.94
2018-06-09T09:46:51.045Z,20.95
2018-06-09T09:49:55.216Z,20.99
2018-06-09T09:52:59.633Z,21.02
2018-06-09T09:56:04.089Z,21.04
2018-06-09T09:59:08.498Z,21.05
2018-06-09T10:02:13.044Z,21.09
2018-06-09T10:05:18.109Z,21.12
2018-06-09T10:08:22.541Z,21.15
2018-06-09T10:11:26.964Z,21.17
2018-06-09T10:14:31.426Z,21.25
2018-06-09T10:17:35.873Z,21.34
2018-06-09T10:20:40.313Z,21.48
2018-06-09T10:23:44.716Z,21.58
2018-06-09T10:26:49.196Z,21.66
2018-06-09T10:29:53.640Z,21.74
2018-06-09T10:32:58.161Z,21.81
2018-06-09T10:36:02.840Z,21.92
2018-06-09T10:39:09.394Z,22.01
2018-06-09T10:42:14.000Z,22.13
2018-06-09T10:45:21.011Z,22.21
2018-06-09T10:48:25.626Z,22.28
2018-06-09T10:51:30.113Z,22.36
2018-06-09T10:54:37.098Z,22.46
2018-06-09T10:57:41.761Z,22.64
2018-06-09T11:00:47.639Z,22.76
2018-06-09T11:03:52.345Z,22.91
2018-06-09T11:06:56.749Z,22.98
2018-06-09T11:10:01.194Z,23.05
2018-06-09T11:13:05.733Z,23.12
2018-06-09T11:16:10.146Z,23.17
2018-06-09T11:19:14.527Z,23.23
2018-06-09T11:22:18.934Z,23.30
2018-06-09T11:25:23.346Z,23.41
2018-06-09T11:28:27.758Z,23.50
2018-06-09T11:31:32.194Z,23.66
2018-06-09T11:34:36.613Z,23.84
2018-06-09T11:37:41.333Z,24.02
2018-06-09T11:40:45.761Z,24.16
2018-06-09T11:43:50.170Z,24.22
2018-06-09T11:46:54.561Z,24.31
2018-06-09T11:49:58.962Z,24.44
2018-06-09T11:53:03.374Z,24.69
2018-06-09T11:56:07.750Z,24.89
2018-06-09T11:59:12.148Z,24.93
2018-06-09T12:02:16.537Z,24.92
2018-06-09T12:05:20.937Z,24.90
2018-06-09T12:08:25.364Z,24.83
2018-06-09T12:11:29.764Z,24.76
2018-06-09T12:14:34.146Z,24.77
2018-06-09T12:17:38.570Z,24.78
2018-06-09T12:20:42.954Z,24.79
2018-06-09T12:23:47.349Z,24.77
2018-06-09T12:26:51.753Z,24.74
2018-06-09T12:29:56.156Z,24.68
2018-06-09T12:33:00.571Z,24.67
2018-06-09T12:36:05.013Z,24.72
2018-06-09T12:39:09.417Z,24.73
2018-06-09T12:42:13.813Z,24.67
2018-06-09T12:45:18.201Z,24.62
2018-06-09T12:48:22.590Z,24.59
2018-06-09T12:51:26.996Z,24.55
2018-06-09T12:54:31.502Z,24.43
2018-06-09T12:57:35.867Z,24.39
2018-06-09T13:00:40.267Z,24.37
2018-06-09T13:03:44.652Z,24.38
2018-06-09T13:06:49.089Z,24.40
2018-06-09T13:09:53.482Z,24.45
2018-06-09T13:12:57.886Z,24.49
2018-06-09T13:16:02.306Z,24.51
2018-06-09T13:19:07.873Z,24.51
2018-06-09T13:22:12.302Z,24.43
2018-06-09T13:25:16.685Z,24.35
2018-06-09T13:28:21.121Z,24.30
2018-06-09T13:31:26.006Z,24.27
2018-06-09T13:34:30.409Z,24.25
2018-06-09T13:37:34.805Z,24.27
2018-06-09T13:40:39.214Z,24.28
2018-06-09T13:43:43.577Z,24.33
2018-06-09T13:46:47.985Z,24.30
2018-06-09T13:49:52.393Z,24.30
2018-06-09T13:52:56.810Z,24.35
2018-06-09T13:56:01.189Z,24.35
2018-06-09T13:59:05.616Z,24.35
2018-06-09T14:02:10.025Z,24.38
2018-06-09T14:05:14.393Z,24.35
2018-06-09T14:08:18.773Z,24.36
2018-06-09T14:11:23.113Z,24.40
2018-06-09T14:14:27.457Z,24.32
2018-06-09T14:17:31.817Z,24.25
2018-06-09T14:20:36.192Z,24.19
2018-06-09T14:23:40.550Z,24.20
2018-06-09T14:26:44.928Z,24.13
2018-06-09T14:29:49.313Z,24.10
2018-06-09T14:32:53.689Z,24.08
2018-06-09T14:35:58.049Z,24.03
2018-06-09T14:39:02.446Z,24.00
2018-06-09T14:42:06.886Z,24.02
2018-06-09T14:45:11.283Z,23.95
2018-06-09T14:48:15.669Z,23.99
2018-06-09T14:51:20.050Z,23.96
2018-06-09T14:54:24.450Z,23.93
2018-06-09T14:57:28.851Z,23.92
2018-06-09T15:00:33.236Z,23.89
2018-06-09T15:03:37.605Z,23.84
2018-06-09T15:06:42.037Z,23.85
2018-06-09T15:09:46.432Z,23.88
2018-06-09T15:12:50.843Z,23.86
2018-06-09T15:15:55.217Z,23.85
2018-06-09T15:18:59.612Z,23.83
2018-06-09T15:22:04.026Z,23.82
2018-06-09T15:25:08.458Z,23.81
2018-06-09T15:28:12.908Z,23.78
2018-06-09T15:31:17.281Z,23.82
2018-06-09T15:34:21.664Z,23.84
2018-06-09T15:37:26.078Z,23.85
2018-06-09T15:40:30.469Z,23.82
2018-06-09T15:43:34.854Z,23.81
2018-06-09T15:46:39.242Z,23.83
2018-06-09T15:49:43.666Z,23.78
2018-06-09T15:52:48.081Z,23.77
2018-06-09T15:55:52.514Z,23.76
2018-06-09T15:58:56.889Z,23.84
2018-06-09T16:02:01.273Z,23.95
2018-06-09T16:05:05.657Z,24.04
2018-06-09T16:08:10.043Z,24.08
2018-06-09T16:11:14.405Z,24.12
2018-06-09T16:14:18.813Z,24.25
2018-06-09T16:17:23.185Z,24.41
2018-06-09T16:20:27.557Z,24.47
2018-06-09T16:23:31.922Z,24.60
2018-06-09T16:26:36.281Z,24.63
2018-06-09T16:29:40.641Z,24.57
2018-06-09T16:32:45.032Z,24.58
2018-06-09T16:35:49.413Z,24.55
2018-06-09T16:38:53.803Z,24.54
2018-06-09T16:41:58.177Z,24.52
2018-06-09T16:45:02.541Z,24.53
2018-06-09T16:48:07.025Z,24.51
2018-06-09T16:51:11.400Z,24.50
2018-06-09T16:54:15.809Z,24.52
2018-06-09T16:57:20.205Z,24.51
2018-06-09T17:00:24.583Z,24.50
2018-06-09T17:03:28.961Z,24.49
2018-06-09T17:06:33.356Z,24.47
2018-06-09T17:09:37.725Z,24.46
2018-06-09T17:12:42.104Z,24.46
2018-06-09T17:15:46.480Z,24.44
2018-06-09T17:18:50.864Z,24.43
2018-06-09T17:21:55.253Z,24.44
2018-06-09T17:24:59.628Z,24.42
2018-06-09T17:28:03.998Z,24.40
2018-06-09T17:31:08.385Z,24.40
2018-06-09T17:34:12.753Z,24.38
2018-06-09T17:37:17.152Z,24.37
2018-06-09T17:40:21.578Z,24.42
2018-06-09T17:43:25.971Z,24.38
2018-06-09T17:46:30.349Z,24.34
2018-06-09T17:49:34.743Z,24.33
2018-06-09T17:52:39.097Z,24.29
2018-06-09T17:55:43.469Z,24.31
2018-06-09T17:58:47.837Z,24.28
2018-06-09T18:01:52.233Z,24.20
2018-06-09T18:04:56.625Z,24.16
2018-06-09T18:08:01.029Z,24.11
2018-06-09T18:11:05.396Z,24.08
2018-06-09T18:14:09.781Z,24.06
2018-06-09T18:17:14.165Z,24.06
2018-06-09T18:20:18.576Z,24.02
2018-06-09T18:23:22.973Z,23.97
2018-06-09T18:26:27.426Z,23.93
2018-06-09T18:29:31.749Z,23.86
2018-06-09T18:32:36.128Z,23.78
2018-06-09T18:35:40.509Z,23.73
2018-06-09T18:38:44.899Z,23.65
2018-06-09T18:41:49.260Z,23.57
2018-06-09T18:44:53.646Z,23.44
2018-06-09T18:47:58.008Z,23.36
2018-06-09T18:51:02.401Z,23.28
2018-06-09T18:54:06.881Z,23.17
2018-06-09T18:57:11.265Z,23.10
2018-06-09T19:00:15.669Z,23.04
2018-06-09T19:03:20.066Z,23.00
2018-06-09T19:06:24.480Z,22.96
2018-06-09T19:09:28.873Z,22.92
2018-06-09T19:12:33.425Z,22.87
2018-06-09T19:15:37.830Z,22.83
2018-06-09T19:18:42.220Z,22.79
2018-06-09T19:21:46.586Z,22.75
2018-06-09T19:24:51.013Z,22.69
2018-06-09T19:27:55.383Z,22.64
2018-06-09T19:30:59.766Z,22.60
2018-06-09T19:34:04.149Z,22.56
2018-06-09T19:37:08.537Z,22.51
2018-06-09T19:40:12.931Z,22.46
2018-06-09T19:43:17.296Z,22.42
2018-06-09T19:46:21.694Z,22.40
2018-06-09T19:49:26.072Z,22.35
2018-06-09T19:52:30.465Z,22.33
2018-06-09T19:55:34.874Z,22.30
2018-06-09T19:58:39.250Z,22.26
2018-06-09T20:01:43.626Z,22.23
2018-06-09T20:04:48.018Z,22.21
2018-06-09T20:07:52.421Z,22.15
2018-06-09T20:10:56.792Z,22.10
2018-06-09T20:14:01.193Z,22.07
2018-06-09T20:17:05.641Z,22.04
2018-06-09T20:20:10.018Z,21.99
2018-06-09T20:23:14.384Z,21.96
2018-06-09T20:26:18.485Z,21.93
2018-06-09T20:29:22.894Z,21.88
2018-06-09T20:32:27.336Z,21.84
2018-06-09T20:35:31.741Z,21.79
2018-06-09T20:38:36.145Z,21.73
2018-06-09T20:41:40.504Z,21.68
2018-06-09T20:44:44.892Z,21.65
2018-06-09T20:47:49.281Z,21.63
2018-06-09T20:50:53.741Z,21.58
2018-06-09T20:53:58.214Z,21.56
2018-06-09T20:57:02.581Z,21.55
2018-06-09T21:00:06.973Z,21.52
2018-06-09T21:03:11.369Z,21.49
2018-06-09T21:06:15.734Z,21.50
2018-06-09T21:09:20.115Z,21.47
2018-06-09T21:12:24.521Z,21.42
2018-06-09T21:15:28.909Z,21.41
2018-06-09T21:18:33.264Z,21.35
2018-06-09T21:21:37.627Z,21.31
2018-06-09T21:24:42.002Z,21.28
2018-06-09T21:27:51.441Z,21.28
2018-06-09T21:31:00.880Z,21.27
2018-06-09T21:34:27.605Z,21.24
2018-06-09T21:37:40.245Z,21.22
2018-06-09T21:40:49.239Z,21.19
2018-06-09T21:43:56.724Z,21.16
2018-06-09T21:47:01.129Z,21.14
2018-06-09T21:50:05.767Z,21.11
2018-06-09T21:53:10.166Z,21.05
2018-06-09T21:56:14.269Z,21.00
2018-06-09T21:59:18.635Z,20.96
2018-06-09T22:02:23.398Z,20.94
2018-06-09T22:05:27.854Z,20.92
2018-06-09T22:08:32.242Z,20.88
2018-06-09T22:11:36.613Z,20.87
2018-06-09T22:14:41.025Z,20.85
2018-06-09T22:17:45.405Z,20.80
2018-06-09T22:20:49.768Z,20.77
2018-06-09T22:23:54.124Z,20.73
2018-06-09T22:26:58.486Z,20.71
2018-06-09T22:30:02.902Z,20.69
2018-06-09T22:33:07.266Z,20.66
2018-06-09T22:36:11.648Z,20.65
2018-06-09T22:39:16.009Z,20.65
2018-06-09T22:42:20.364Z,20.62
2018-06-09T22:45:24.738Z,20.60
2018-06-09T22:48:29.125Z,20.57
2018-06-09T22:51:33.481Z,20.56
2018-06-09T22:54:37.886Z,20.53
2018-06-09T22:57:42.269Z,20.53
2018-06-09T23:00:50.194Z,20.51
2018-06-09T23:03:54.562Z,20.48
2018-06-09T23:06:58.920Z,20.45
2018-06-09T23:10:03.272Z,20.44
2018-06-09T23:13:07.640Z,20.41
2018-06-09T23:16:11.992Z,20.41
2018-06-09T23:19:16.388Z,20.37
2018-06-09T23:22:20.819Z,20.33
2018-06-09T23:25:25.157Z,20.31
2018-06-09T23:28:29.513Z,20.30
2018-06-09T23:31:33.877Z,20.29
2018-06-09T23:34:38.231Z,20.27
2018-06-09T23:37:42.629Z,20.25
2018-06-09T23:40:46.980Z,20.21
2018-06-09T23:43:51.353Z,20.19
2018-06-09T23:46:55.692Z,20.11
2018-06-09T23:50:00.099Z,20.03
2018-06-09T23:53:04.507Z,20.00
2018-06-09T23:56:08.945Z,19.97
2018-06-09T23:59:13.297Z,19.94
